Meleuz, Russia
Current Conditions -  °F | °C
As of 11:30 PM on Tuesday 27 Jan 2015 (Local Time) from UWOO Reporting Station
Broken Clouds Broken Clouds  
Wind Chill: -25°   Ceiling: 24000
Heat Index: -13°   Visibility: 3mi
Dew Point: -18°   Wind: 4mph
Humidity: 77%   Direction: 50°NE
Pressure: 30.71"   Gusts: NA
Location:  52.97°N, 55.92°E
Report Text: UWOO 271830Z 05002MPS P5000 BKN240 M25/M28 Q1040 08810353 NOSIGRMK QFE769/1025
Loading
Personal Weather Stations






























Interactive Weather Map New forecast layout! Learn more

10-Day Weather Forecast

Advertisements
Track Severe Weather on mobile